createdAt,value
2023-02-21T00:01:03.288Z,44.33
2023-02-21T00:06:26.870Z,43.83
2023-02-21T00:11:49.237Z,44.65
2023-02-21T00:17:10.348Z,43.50
2023-02-21T00:22:30.976Z,48.13
2023-02-21T00:27:52.979Z,52.70
2023-02-21T00:33:13.633Z,52.07
2023-02-21T00:38:34.203Z,53.03
2023-02-21T00:43:56.398Z,53.15
2023-02-21T00:49:16.957Z,42.13
2023-02-21T00:54:37.455Z,52.28
2023-02-21T00:59:59.475Z,49.75
2023-02-21T01:05:20.148Z,49.63
2023-02-21T01:10:40.847Z,46.50
2023-02-21T01:16:03.258Z,43.42
2023-02-21T01:21:24.266Z,45.50
2023-02-21T01:26:45.675Z,44.35
2023-02-21T01:32:10.185Z,43.60
2023-02-21T01:37:30.839Z,52.58
2023-02-21T01:42:51.446Z,43.70
2023-02-21T01:48:13.564Z,46.35
2023-02-21T01:53:38.755Z,53.77
2023-02-21T01:59:00.004Z,52.97
2023-02-21T02:04:23.022Z,47.28
2023-02-21T02:09:43.723Z,56.65
2023-02-21T02:15:01.142Z,54.53
2023-02-21T02:20:41.396Z,59.42
2023-02-21T02:26:09.677Z,53.05
2023-02-21T02:31:34.911Z,63.42
2023-02-21T02:36:44.300Z,61.20
2023-02-21T02:41:55.713Z,53.67
2023-02-21T02:47:04.540Z,56.23
2023-02-21T02:52:10.999Z,57.50
2023-02-21T02:57:14.316Z,64.00
2023-02-21T03:02:38.514Z,54.75
2023-02-21T03:07:53.518Z,46.28
2023-02-21T03:13:04.242Z,57.80
2023-02-21T03:18:16.838Z,42.65
2023-02-21T03:23:24.323Z,51.40
2023-02-21T03:28:28.792Z,54.53
2023-02-21T03:33:32.328Z,52.83
2023-02-21T03:38:38.760Z,59.85
2023-02-21T03:43:42.027Z,51.63
2023-02-21T03:48:45.890Z,55.67
2023-02-21T03:53:50.656Z,45.83
2023-02-21T03:58:53.828Z,47.67
2023-02-21T04:03:57.014Z,59.17
2023-02-21T04:09:01.941Z,53.20
2023-02-21T04:14:05.913Z,57.55
2023-02-21T04:19:09.174Z,45.33
2023-02-21T04:24:14.136Z,47.92
2023-02-21T04:29:17.759Z,55.97
2023-02-21T04:34:21.082Z,52.33
2023-02-21T04:39:26.148Z,50.15
2023-02-21T04:44:29.406Z,44.95
2023-02-21T04:49:32.705Z,54.70
2023-02-21T04:54:37.859Z,52.13
2023-02-21T04:59:41.368Z,51.42
2023-02-21T05:04:44.679Z,48.70
2023-02-21T05:09:49.851Z,47.22
2023-02-21T05:14:53.071Z,56.60
2023-02-21T05:19:56.733Z,44.85
2023-02-21T05:25:01.445Z,46.35
2023-02-21T05:30:04.881Z,44.60
2023-02-21T05:35:09.543Z,47.33
2023-02-21T05:40:17.001Z,45.13
2023-02-21T05:45:20.628Z,48.10
2023-02-21T05:50:23.868Z,44.65
2023-02-21T05:55:29.066Z,39.65
2023-02-21T06:00:32.857Z,47.70
2023-02-21T06:05:36.211Z,44.38
2023-02-21T06:10:40.805Z,47.15
2023-02-21T06:15:43.979Z,43.22
2023-02-21T06:20:47.273Z,40.25
2023-02-21T06:25:51.984Z,44.75
2023-02-21T06:30:55.362Z,38.10
2023-02-21T06:35:59.021Z,46.53
2023-02-21T06:41:15.198Z,47.88
2023-02-21T06:46:19.976Z,48.28
2023-02-21T06:51:29.522Z,41.30
2023-02-21T06:56:34.674Z,39.45
2023-02-21T07:01:38.342Z,36.58
2023-02-21T07:06:41.622Z,48.55
2023-02-21T07:11:47.187Z,45.58
2023-02-21T07:16:50.934Z,42.47
2023-02-21T07:21:54.217Z,43.67
2023-02-21T07:26:59.151Z,44.65
2023-02-21T07:32:02.782Z,39.10
2023-02-21T07:37:06.080Z,34.85
2023-02-21T07:42:12.604Z,37.38
2023-02-21T07:47:17.037Z,39.50
2023-02-21T07:52:20.264Z,31.73
2023-02-21T07:57:25.073Z,34.00
2023-02-21T08:02:28.445Z,37.17
2023-02-21T08:07:31.914Z,36.15
2023-02-21T08:12:38.193Z,36.70
2023-02-21T08:17:41.397Z,32.05
2023-02-21T08:22:44.595Z,31.63
2023-02-21T08:27:53.688Z,31.27
2023-02-21T08:32:56.938Z,28.20
2023-02-21T08:38:03.268Z,32.90
2023-02-21T08:43:07.855Z,29.55
2023-02-21T08:48:12.481Z,28.92
2023-02-21T08:53:16.166Z,33.53
2023-02-21T08:58:20.872Z,30.98
2023-02-21T09:03:24.244Z,29.20
2023-02-21T09:08:28.670Z,26.63
2023-02-21T09:13:34.093Z,26.45
2023-02-21T09:18:37.656Z,27.20
2023-02-21T09:23:41.152Z,29.25
2023-02-21T09:28:46.771Z,29.40
2023-02-21T09:33:50.204Z,30.13
2023-02-21T09:38:53.446Z,28.95
2023-02-21T09:43:58.147Z,28.33
2023-02-21T09:49:03.955Z,25.73
2023-02-21T09:54:08.861Z,22.85
2023-02-21T09:59:14.628Z,24.80
2023-02-21T10:04:30.620Z,24.65
2023-02-21T10:09:43.747Z,24.13
2023-02-21T10:15:06.813Z,21.95
2023-02-21T10:20:15.663Z,22.27
2023-02-21T10:25:23.796Z,23.95
2023-02-21T10:30:36.401Z,22.95
2023-02-21T10:35:40.799Z,24.83
2023-02-21T10:40:46.644Z,21.00
2023-02-21T10:45:55.852Z,26.10
2023-02-21T10:51:09.000Z,24.42
2023-02-21T10:56:25.658Z,22.88
2023-02-21T11:01:37.728Z,26.17
2023-02-21T11:06:45.947Z,25.90
2023-02-21T11:11:49.206Z,23.20
2023-02-21T11:17:15.848Z,23.27
2023-02-21T11:22:22.680Z,23.15
2023-02-21T11:27:26.584Z,23.13
2023-02-21T11:32:35.629Z,25.77
2023-02-21T11:37:50.671Z,26.63
2023-02-21T11:43:20.297Z,22.52
2023-02-21T11:48:31.356Z,23.02
2023-02-21T11:53:40.991Z,23.40
2023-02-21T11:58:52.556Z,25.73
2023-02-21T12:04:16.701Z,27.83
2023-02-21T12:09:29.660Z,27.45
2023-02-21T12:14:50.664Z,32.13
2023-02-21T12:20:19.531Z,25.58
2023-02-21T12:25:30.892Z,26.88
2023-02-21T12:30:47.877Z,28.40
2023-02-21T12:36:12.765Z,28.35
2023-02-21T12:41:28.602Z,26.17
2023-02-21T12:46:36.785Z,29.60
2023-02-21T12:51:46.888Z,27.75
2023-02-21T12:57:02.957Z,30.83
2023-02-21T13:02:17.142Z,29.90
2023-02-21T13:07:26.555Z,26.63
2023-02-21T13:12:37.448Z,24.20
2023-02-21T13:17:41.849Z,29.45
2023-02-21T13:23:43.545Z,25.83
2023-02-21T13:28:53.007Z,31.42
2023-02-21T13:33:58.769Z,29.85
2023-02-21T13:39:05.926Z,26.85
2023-02-21T13:44:14.595Z,31.80
2023-02-21T13:49:42.811Z,28.20
2023-02-21T13:55:23.259Z,28.27
2023-02-21T14:00:53.728Z,29.48
2023-02-21T14:06:30.909Z,30.05
2023-02-21T14:11:39.568Z,32.05
2023-02-21T14:16:53.215Z,34.20
2023-02-21T14:22:04.129Z,31.67
2023-02-21T14:27:37.009Z,42.75
2023-02-21T14:32:44.680Z,37.77
2023-02-21T14:37:56.296Z,34.42
2023-02-21T14:43:18.476Z,31.33
2023-02-21T14:48:46.366Z,35.38
2023-02-21T14:54:07.076Z,31.92
2023-02-21T14:59:40.362Z,38.13
2023-02-21T15:04:49.715Z,39.30
2023-02-21T15:10:24.843Z,40.72
2023-02-21T15:15:32.992Z,34.45
2023-02-21T15:20:38.656Z,34.30
2023-02-21T15:25:42.800Z,34.63
2023-02-21T15:30:59.263Z,30.88
2023-02-21T15:36:07.009Z,38.40
2023-02-21T15:41:17.325Z,40.83
2023-02-21T15:46:26.311Z,37.03
2023-02-21T15:51:30.446Z,37.53
2023-02-21T15:56:33.824Z,69.25
2023-02-21T16:01:40.194Z,51.53
2023-02-21T16:06:53.302Z,42.42
2023-02-21T16:12:00.912Z,44.78
2023-02-21T16:17:22.593Z,42.83
2023-02-21T16:22:30.129Z,35.13
2023-02-21T16:27:33.455Z,41.45
2023-02-21T16:32:39.751Z,39.88
2023-02-21T16:37:42.905Z,38.80
2023-02-21T16:42:46.024Z,44.40
2023-02-21T16:47:56.335Z,41.25
2023-02-21T16:53:00.109Z,38.40
2023-02-21T16:58:06.226Z,39.70
2023-02-21T17:03:10.989Z,36.72
2023-02-21T17:08:14.529Z,39.03
2023-02-21T17:13:18.375Z,37.45
2023-02-21T17:18:23.617Z,45.63
2023-02-21T17:23:27.753Z,35.90
2023-02-21T17:28:31.262Z,33.25
2023-02-21T17:33:36.736Z,40.70
2023-02-21T17:38:40.102Z,35.17
2023-02-21T17:43:43.717Z,37.83
2023-02-21T17:48:48.529Z,37.45
2023-02-21T17:53:52.438Z,42.25
2023-02-21T17:58:57.470Z,41.15
2023-02-21T18:04:02.387Z,41.85
2023-02-21T18:09:06.150Z,43.17
2023-02-21T18:14:09.482Z,46.78
2023-02-21T18:19:14.385Z,49.63
2023-02-21T18:24:18.900Z,45.08
2023-02-21T18:29:22.369Z,45.10
2023-02-21T18:34:27.090Z,44.15
2023-02-21T18:39:30.613Z,48.42
2023-02-21T18:44:34.603Z,42.70
2023-02-21T18:49:39.384Z,45.03
2023-02-21T18:54:45.867Z,48.28
2023-02-21T18:59:50.712Z,44.88
2023-02-21T19:04:55.882Z,40.67
2023-02-21T19:09:59.274Z,43.72
2023-02-21T19:15:02.853Z,48.75
2023-02-21T19:20:09.295Z,45.08
2023-02-21T19:25:12.608Z,42.95
2023-02-21T19:30:19.570Z,44.50
2023-02-21T19:35:24.306Z,42.22
2023-02-21T19:40:28.614Z,42.08
2023-02-21T19:45:32.652Z,44.60
2023-02-21T19:50:37.951Z,39.15
2023-02-21T19:55:41.461Z,42.35
2023-02-21T20:00:46.478Z,43.00
2023-02-21T20:05:51.309Z,38.63
2023-02-21T20:10:54.773Z,42.35
2023-02-21T20:15:59.142Z,51.38
2023-02-21T20:21:04.190Z,47.03
2023-02-21T20:26:12.095Z,42.92
2023-02-21T20:31:16.196Z,51.20
2023-02-21T20:36:28.559Z,47.97
2023-02-21T20:41:33.038Z,48.10
2023-02-21T20:46:38.547Z,43.47
2023-02-21T20:51:44.800Z,44.83
2023-02-21T20:56:50.026Z,43.63
2023-02-21T21:01:54.017Z,43.88
2023-02-21T21:07:00.229Z,43.75
2023-02-21T21:12:04.634Z,47.83
2023-02-21T21:17:29.826Z,42.78
2023-02-21T21:22:34.455Z,51.58
2023-02-21T21:27:38.400Z,52.55
2023-02-21T21:32:42.475Z,52.97
2023-02-21T21:37:47.536Z,49.45
2023-02-21T21:42:52.174Z,49.72
2023-02-21T21:47:58.793Z,51.78
2023-02-21T21:53:03.508Z,48.05
2023-02-21T21:58:14.086Z,52.50
2023-02-21T22:03:18.558Z,48.55
2023-02-21T22:08:26.635Z,44.55
2023-02-21T22:13:33.982Z,45.85
2023-02-21T22:18:37.278Z,46.45
2023-02-21T22:23:43.117Z,44.83
2023-02-21T22:28:46.492Z,47.58
2023-02-21T22:33:49.759Z,46.53
2023-02-21T22:38:55.086Z,47.80
2023-02-21T22:43:58.480Z,44.35
2023-02-21T22:49:01.760Z,52.33
2023-02-21T22:54:07.261Z,51.85
2023-02-21T22:59:12.743Z,52.47
2023-02-21T23:04:25.990Z,51.92
2023-02-21T23:09:36.983Z,45.63
2023-02-21T23:14:41.621Z,46.45
2023-02-21T23:19:44.988Z,56.00
2023-02-21T23:24:49.736Z,46.95
2023-02-21T23:29:54.248Z,53.13
2023-02-21T23:34:57.579Z,55.10
2023-02-21T23:40:02.301Z,53.28
2023-02-21T23:45:07.757Z,55.85
2023-02-21T23:50:17.438Z,52.55
2023-02-21T23:55:25.177Z,49.35
